Time;durP1;ratioP1;P1;durP2;ratioP2;P2;SDS_P1;SDS_P2;PMS_P1;PMS_P2;Temp;Humidity;BMP_temperature;BMP_pressure;BME280_temperature;BME280_humidity;BME280_pressure;Samples;Min_cycle;Max_cycle;Signal;HPM_P1;HPM_P2
2021/06/28 00:00:10;;;;;;;3.15;2.75;;;19.40;70.30;;;;;;3571689;40;20574;-71
2021/06/28 00:02:37;;;;;;;3.45;2.90;;;19.30;70.60;;;;;;3571175;40;20110;-71
2021/06/28 00:05:05;;;;;;;3.40;3.10;;;19.30;70.60;;;;;;3572513;40;20059;-72
2021/06/28 00:07:31;;;;;;;3.90;3.40;;;19.30;70.80;;;;;;3573518;40;20029;-71
2021/06/28 00:09:57;;;;;;;4.35;3.15;;;19.30;70.90;;;;;;3575120;40;20809;-71
2021/06/28 00:12:22;;;;;;;3.53;3.20;;;19.30;71.10;;;;;;3576737;40;20072;-71
2021/06/28 00:14:48;;;;;;;4.65;3.53;;;19.20;71.10;;;;;;3578390;40;20039;-71
2021/06/28 00:17:14;;;;;;;4.05;3.20;;;19.30;71.20;;;;;;3579700;40;20146;-71
2021/06/28 00:19:39;;;;;;;4.70;3.28;;;19.30;71.20;;;;;;3570531;40;20138;-71
2021/06/28 00:22:05;;;;;;;4.40;3.20;;;19.20;71.30;;;;;;3579267;40;20040;-71
2021/06/28 00:24:31;;;;;;;3.40;3.10;;;19.20;71.40;;;;;;3577179;40;20025;-71
2021/06/28 00:26:56;;;;;;;3.60;3.30;;;19.20;71.80;;;;;;3575864;40;20044;-71
2021/06/28 00:29:23;;;;;;;3.53;3.22;;;19.10;71.80;;;;;;3573794;40;20525;-71
2021/06/28 00:31:51;;;;;;;3.15;2.95;;;19.10;72.00;;;;;;3574749;40;20028;-71
2021/06/28 00:34:17;;;;;;;5.55;3.28;;;19.10;71.90;;;;;;3570925;40;20024;-71
2021/06/28 00:36:43;;;;;;;3.65;3.28;;;19.10;71.80;;;;;;3570985;40;20065;-71
2021/06/28 00:39:08;;;;;;;4.43;3.05;;;19.10;71.90;;;;;;3572459;40;20022;-71
2021/06/28 00:41:34;;;;;;;3.55;2.92;;;19.00;72.00;;;;;;3569621;40;20040;-71
2021/06/28 00:44:00;;;;;;;4.03;3.63;;;19.00;72.20;;;;;;3575806;40;20032;-71
2021/06/28 00:46:25;;;;;;;4.47;3.45;;;19.00;72.30;;;;;;3576932;40;20035;-71
2021/06/28 00:48:51;;;;;;;5.90;4.03;;;19.00;72.10;;;;;;3578707;40;20037;-71
2021/06/28 00:51:17;;;;;;;4.97;3.90;;;19.00;72.00;;;;;;3579491;40;20036;-71
2021/06/28 00:53:43;;;;;;;4.07;3.67;;;19.00;72.20;;;;;;3578934;40;20016;-71
2021/06/28 00:56:09;;;;;;;3.55;3.22;;;19.10;72.10;;;;;;3577416;40;20032;-70
2021/06/28 00:58:40;;;;;;;3.55;3.25;;;19.10;72.10;;;;;;3576164;40;20036;-71
2021/06/28 01:01:06;;;;;;;5.18;3.72;;;19.10;72.20;;;;;;3574320;40;20044;-71
2021/06/28 01:03:33;;;;;;;5.25;3.60;;;19.00;72.20;;;;;;3573427;40;20042;-71
2021/06/28 01:06:00;;;;;;;4.65;4.10;;;19.00;72.40;;;;;;3572044;40;20033;-71
2021/06/28 01:08:26;;;;;;;5.05;4.30;;;19.00;72.20;;;;;;3570558;40;20024;-71
2021/06/28 01:10:52;;;;;;;5.10;4.50;;;19.00;72.80;;;;;;3571150;40;20141;-71
2021/06/28 01:13:18;;;;;;;5.25;3.67;;;19.00;71.80;;;;;;3572480;40;20457;-71
2021/06/28 01:15:44;;;;;;;5.40;4.47;;;19.10;71.60;;;;;;3564852;40;20048;-70
2021/06/28 01:18:11;;;;;;;8.25;4.82;;;19.20;71.00;;;;;;3569812;40;20421;-71
2021/06/28 01:20:37;;;;;;;4.57;3.97;;;19.20;71.00;;;;;;3577486;40;20044;-71
2021/06/28 01:23:25;;;;;;;5.47;4.18;;;19.30;70.70;;;;;;3576665;40;20600;-71
2021/06/28 01:26:02;;;;;;;5.05;3.80;;;19.30;70.70;;;;;;3570015;40;20339;-71
2021/06/28 01:28:28;;;;;;;3.78;3.22;;;19.20;71.00;;;;;;3578026;40;20449;-71
2021/06/28 01:30:57;;;;;;;3.60;3.00;;;19.20;70.80;;;;;;3575160;40;20044;-71
2021/06/28 01:33:23;;;;;;;3.55;3.05;;;19.10;70.70;;;;;;3575325;40;20033;-71
2021/06/28 01:35:49;;;;;;;3.55;3.25;;;19.00;70.70;;;;;;3574505;40;20023;-71
2021/06/28 01:38:15;;;;;;;4.20;3.80;;;19.00;71.30;;;;;;3573457;40;20025;-70
2021/06/28 01:40:41;;;;;;;8.05;4.93;;;18.90;71.60;;;;;;3574326;40;20056;-70
2021/06/28 01:43:07;;;;;;;7.30;4.07;;;19.00;71.80;;;;;;3576457;40;20039;-70
2021/06/28 01:45:34;;;;;;;4.43;4.03;;;19.00;71.80;;;;;;3578328;40;20044;-72
2021/06/28 01:48:00;;;;;;;5.05;4.55;;;19.00;71.80;;;;;;3576012;40;20062;-71
2021/06/28 01:50:28;;;;;;;6.65;4.47;;;19.00;71.80;;;;;;3576838;40;20826;-71
2021/06/28 01:52:55;;;;;;;5.20;4.63;;;19.00;71.70;;;;;;3576165;40;20040;-71
2021/06/28 01:55:21;;;;;;;5.03;4.18;;;19.00;71.80;;;;;;3577726;40;20040;-71
2021/06/28 01:57:52;;;;;;;4.97;4.10;;;19.00;71.70;;;;;;3578905;40;20025;-71
2021/06/28 02:00:26;;;;;;;5.07;4.57;;;19.00;71.80;;;;;;3578674;40;20130;-71
2021/06/28 02:03:00;;;;;;;5.97;4.40;;;19.00;71.70;;;;;;3578034;40;20016;-71
2021/06/28 02:05:27;;;;;;;4.90;4.43;;;18.90;71.90;;;;;;3573235;40;20032;-71
2021/06/28 02:07:53;;;;;;;4.95;4.38;;;19.00;71.80;;;;;;3566217;40;20035;-71
2021/06/28 02:10:19;;;;;;;5.03;4.35;;;19.00;71.80;;;;;;3573763;40;20049;-71
2021/06/28 02:12:45;;;;;;;7.72;4.80;;;19.00;71.90;;;;;;3569167;40;20069;-71
2021/06/28 02:15:19;;;;;;;4.80;3.95;;;19.00;71.80;;;;;;3568763;40;20044;-71
2021/06/28 02:17:45;;;;;;;5.25;4.18;;;19.00;71.80;;;;;;3568887;40;20033;-71
2021/06/28 02:20:11;;;;;;;6.05;4.78;;;19.00;71.80;;;;;;3574946;40;20112;-71
2021/06/28 02:22:38;;;;;;;6.65;4.07;;;19.00;71.80;;;;;;3573750;40;20039;-71
2021/06/28 02:25:06;;;;;;;7.07;4.43;;;18.90;71.80;;;;;;3575485;40;20021;-71
2021/06/28 02:27:32;;;;;;;6.82;4.43;;;18.90;71.90;;;;;;3570888;40;20088;-71
2021/06/28 02:29:58;;;;;;;5.00;4.13;;;18.90;71.80;;;;;;3566865;40;20044;-71
2021/06/28 02:32:24;;;;;;;5.40;4.18;;;18.80;72.00;;;;;;3572573;40;20314;-71
2021/06/28 02:34:49;;;;;;;5.20;4.15;;;18.80;72.20;;;;;;3570170;40;20065;-71
2021/06/28 02:37:15;;;;;;;4.57;4.18;;;18.70;72.00;;;;;;3573543;40;20033;-70
2021/06/28 02:39:40;;;;;;;5.95;4.25;;;18.70;72.20;;;;;;3573342;40;20479;-70
2021/06/28 02:42:07;;;;;;;5.65;4.63;;;18.60;72.80;;;;;;3575488;40;20585;-70
2021/06/28 02:44:32;;;;;;;5.10;4.60;;;18.60;72.90;;;;;;3577029;40;20044;-70
2021/06/28 02:46:58;;;;;;;4.97;4.25;;;18.50;73.10;;;;;;3577766;40;20032;-70
2021/06/28 02:49:24;;;;;;;7.07;4.82;;;18.50;73.30;;;;;;3577807;40;20029;-70
2021/06/28 02:51:50;;;;;;;6.60;4.80;;;18.50;73.80;;;;;;3572244;40;20030;-70
2021/06/28 02:54:16;;;;;;;5.28;4.78;;;18.50;73.60;;;;;;3573457;40;20036;-71
2021/06/28 02:56:41;;;;;;;6.65;5.03;;;18.50;73.60;;;;;;3575088;40;20722;-70
2021/06/28 02:59:10;;;;;;;6.78;5.07;;;18.50;73.60;;;;;;3576345;40;20028;-70
2021/06/28 03:01:36;;;;;;;5.32;4.82;;;18.50;73.80;;;;;;3577901;40;20036;-70
2021/06/28 03:04:03;;;;;;;5.68;5.00;;;18.50;74.00;;;;;;3575018;40;20137;-70
2021/06/28 03:06:28;;;;;;;6.38;4.72;;;18.40;74.10;;;;;;3572867;40;20025;-71
2021/06/28 03:08:54;;;;;;;6.40;4.70;;;18.40;74.20;;;;;;3566194;40;20032;-70
2021/06/28 03:11:21;;;;;;;5.60;4.65;;;18.40;74.30;;;;;;3576564;40;20434;-70
2021/06/28 03:13:48;;;;;;;5.10;4.60;;;18.40;74.50;;;;;;3574006;40;20386;-71
2021/06/28 03:16:14;;;;;;;6.15;4.90;;;18.30;74.50;;;;;;3575322;40;20020;-70
2021/06/28 03:18:40;;;;;;;5.40;4.90;;;18.40;74.60;;;;;;3578913;40;20406;-70
2021/06/28 03:21:07;;;;;;;7.13;4.88;;;18.30;74.40;;;;;;3580253;40;20097;-70
2021/06/28 03:23:34;;;;;;;5.63;4.95;;;18.30;74.50;;;;;;3579080;40;20033;-70
2021/06/28 03:26:00;;;;;;;5.80;4.85;;;18.30;74.60;;;;;;3578102;40;20040;-70
2021/06/28 03:28:26;;;;;;;6.45;5.55;;;18.40;74.70;;;;;;3574569;40;20024;-70
2021/06/28 03:30:53;;;;;;;5.85;5.25;;;18.30;74.60;;;;;;3566066;40;20040;-70
2021/06/28 03:33:19;;;;;;;7.28;6.22;;;18.40;74.40;;;;;;3568510;40;20065;-69
2021/06/28 03:35:45;;;;;;;7.53;5.32;;;18.50;74.10;;;;;;3578715;40;20511;-69
2021/06/28 03:38:11;;;;;;;5.28;4.75;;;18.50;74.10;;;;;;3573840;40;20036;-65
2021/06/28 03:40:37;;;;;;;5.57;4.85;;;18.60;74.10;;;;;;3568483;40;20370;-64
2021/06/28 03:43:06;;;;;;;6.13;5.50;;;18.70;74.40;;;;;;3577283;40;20052;-64
2021/06/28 03:45:32;;;;;;;8.38;6.35;;;18.80;74.00;;;;;;3575044;40;20049;-65
2021/06/28 03:47:58;;;;;;;7.88;6.32;;;18.90;73.60;;;;;;3576360;40;20149;-64
2021/06/28 03:50:24;;;;;;;7.35;5.30;;;19.00;72.50;;;;;;3579037;40;20716;-64
2021/06/28 03:52:50;;;;;;;9.95;5.90;;;19.00;72.00;;;;;;3579031;40;20039;-64
2021/06/28 03:55:16;;;;;;;7.85;5.22;;;19.20;71.40;;;;;;3574755;40;20033;-65
2021/06/28 03:57:42;;;;;;;6.90;4.93;;;19.40;70.90;;;;;;3575350;40;20049;-65
2021/06/28 04:00:14;;;;;;;6.57;5.13;;;19.50;70.60;;;;;;3576932;40;20035;-65
2021/06/28 04:02:41;;;;;;;6.65;5.10;;;19.50;70.80;;;;;;3575539;40;20029;-65
2021/06/28 04:05:20;;;;;;;5.47;4.90;;;19.50;71.00;;;;;;3577052;40;20036;-65
2021/06/28 04:07:46;;;;;;;7.50;4.78;;;19.50;70.40;;;;;;3571740;40;20127;-65
2021/06/28 04:10:13;;;;;;;7.55;5.72;;;19.50;70.80;;;;;;3567941;40;20597;-65
2021/06/28 04:12:40;;;;;;;5.45;4.95;;;19.60;70.40;;;;;;3578385;40;20628;-65
2021/06/28 04:15:10;;;;;;;5.60;4.82;;;19.60;70.60;;;;;;3576870;40;20036;-65
2021/06/28 04:17:38;;;;;;;5.68;4.72;;;19.60;70.60;;;;;;3575093;40;20470;-65
2021/06/28 04:20:06;;;;;;;6.45;5.20;;;19.70;70.60;;;;;;3562736;40;20134;-65
2021/06/28 04:22:31;;;;;;;4.85;4.45;;;19.80;70.00;;;;;;3577058;40;20056;-65
2021/06/28 04:24:57;;;;;;;6.05;4.53;;;19.80;70.10;;;;;;3567776;40;20053;-65
2021/06/28 04:27:23;;;;;;;7.18;4.75;;;19.90;69.90;;;;;;3573602;40;20065;-65
2021/06/28 04:29:49;;;;;;;5.18;4.50;;;20.00;70.00;;;;;;3577991;40;20061;-65
2021/06/28 04:32:14;;;;;;;5.28;4.70;;;20.00;69.40;;;;;;3577718;40;20577;-67
2021/06/28 04:34:43;;;;;;;7.30;4.65;;;20.10;69.20;;;;;;3575891;40;20042;-72
2021/06/28 04:37:09;;;;;;;5.32;4.57;;;20.30;69.50;;;;;;3574868;40;20021;-68
2021/06/28 04:39:34;;;;;;;6.90;4.88;;;20.40;69.10;;;;;;3563778;40;20126;-68
2021/06/28 04:42:00;;;;;;;4.82;4.25;;;20.40;69.70;;;;;;3578551;40;20029;-69
2021/06/28 04:44:26;;;;;;;5.15;4.57;;;20.60;68.10;;;;;;3572027;40;20040;-70
2021/06/28 04:46:51;;;;;;;4.93;4.43;;;20.60;68.00;;;;;;3568399;40;20118;-70
2021/06/28 04:49:17;;;;;;;6.32;4.32;;;20.70;68.50;;;;;;3575275;40;20489;-70
2021/06/28 04:51:43;;;;;;;5.28;4.78;;;20.80;68.50;;;;;;3574926;40;20025;-70
2021/06/28 04:54:09;;;;;;;6.22;4.60;;;20.90;68.60;;;;;;3575655;40;20021;-70
2021/06/28 04:56:34;;;;;;;6.60;4.90;;;20.90;68.40;;;;;;3577899;40;20133;-71
2021/06/28 04:59:00;;;;;;;6.20;5.00;;;21.00;68.80;;;;;;3573418;40;20025;-71
2021/06/28 05:01:26;;;;;;;5.78;4.80;;;21.10;68.20;;;;;;3570625;40;20032;-69
2021/06/28 05:03:51;;;;;;;5.95;4.60;;;21.20;67.80;;;;;;3572228;40;20028;-70
2021/06/28 05:06:17;;;;;;;5.68;4.28;;;21.30;67.40;;;;;;3576181;40;20032;-69
2021/06/28 05:08:43;;;;;;;7.32;4.55;;;21.40;67.20;;;;;;3575868;40;20293;-70
2021/06/28 05:11:09;;;;;;;7.03;4.00;;;21.50;66.80;;;;;;3564272;40;20048;-70
2021/06/28 05:13:34;;;;;;;6.28;4.28;;;21.60;66.90;;;;;;3568322;40;20408;-67
2021/06/28 05:16:00;;;;;;;5.22;4.22;;;21.70;66.70;;;;;;3569644;40;20036;-68
2021/06/28 05:18:26;;;;;;;4.53;3.88;;;21.80;66.20;;;;;;3570810;40;20545;-69
2021/06/28 05:20:52;;;;;;;4.43;4.03;;;21.90;66.30;;;;;;3574681;40;20064;-71
2021/06/28 05:23:19;;;;;;;5.50;3.90;;;22.00;65.50;;;;;;3574403;40;20316;-70
2021/06/28 05:25:45;;;;;;;6.72;4.03;;;22.20;64.80;;;;;;3559245;40;20516;-70
2021/06/28 05:28:11;;;;;;;5.93;4.15;;;22.40;63.90;;;;;;3563233;40;20065;-70
2021/06/28 05:30:40;;;;;;;4.28;3.88;;;22.60;62.30;;;;;;3565393;40;20405;-69
2021/06/28 05:33:05;;;;;;;4.30;3.63;;;22.70;62.30;;;;;;3567804;40;20056;-70
2021/06/28 05:35:31;;;;;;;4.43;4.00;;;22.90;61.70;;;;;;3562317;40;20726;-70
2021/06/28 05:37:57;;;;;;;5.82;4.18;;;23.10;60.70;;;;;;3561274;40;20037;-70
2021/06/28 05:40:23;;;;;;;7.40;4.20;;;23.30;59.60;;;;;;3561566;40;20037;-71
2021/06/28 05:42:48;;;;;;;6.07;4.93;;;23.60;57.90;;;;;;3563424;40;20061;-70
2021/06/28 05:45:14;;;;;;;7.03;4.45;;;23.80;56.90;;;;;;3562069;40;20032;-70
2021/06/28 05:47:40;;;;;;;4.72;4.13;;;24.10;56.10;;;;;;3562763;40;20152;-69
2021/06/28 05:50:08;;;;;;;4.53;4.13;;;24.30;55.30;;;;;;3559384;40;20065;-70
2021/06/28 05:52:34;;;;;;;4.95;4.40;;;24.50;54.80;;;;;;3560694;40;20017;-70
2021/06/28 05:55:00;;;;;;;4.70;4.30;;;24.70;54.40;;;;;;3563179;40;20036;-69
2021/06/28 05:57:26;;;;;;;4.70;4.28;;;24.80;54.30;;;;;;3564689;40;20072;-67
2021/06/28 05:59:54;;;;;;;5.45;4.85;;;25.00;53.90;;;;;;3565207;40;20185;-71
2021/06/28 06:02:20;;;;;;;6.80;5.18;;;25.10;53.00;;;;;;3565972;40;20040;-71
2021/06/28 06:04:46;;;;;;;5.85;4.95;;;25.20;53.00;;;;;;3558986;40;20033;-70
2021/06/28 06:07:12;;;;;;;4.82;4.32;;;25.30;52.90;;;;;;3561187;40;20085;-71
2021/06/28 06:09:38;;;;;;;5.32;4.82;;;25.40;53.20;;;;;;3564591;40;20029;-70
2021/06/28 06:12:04;;;;;;;10.15;5.18;;;25.50;53.70;;;;;;3565807;40;20061;-71
2021/06/28 06:14:30;;;;;;;5.25;4.75;;;25.50;54.50;;;;;;3566718;40;20101;-71
2021/06/28 06:16:56;;;;;;;6.10;4.93;;;25.60;54.60;;;;;;3566212;40;20029;-71
2021/06/28 06:19:21;;;;;;;6.15;4.88;;;25.60;53.40;;;;;;3567257;40;20718;-71
2021/06/28 06:21:47;;;;;;;6.53;5.00;;;25.60;54.30;;;;;;3568256;40;20036;-71
2021/06/28 06:24:13;;;;;;;5.47;4.85;;;25.70;53.20;;;;;;3565276;40;20029;-71
2021/06/28 06:26:39;;;;;;;6.32;5.15;;;25.80;53.30;;;;;;3567087;40;20029;-70
2021/06/28 06:29:05;;;;;;;10.35;5.57;;;25.90;53.50;;;;;;3568621;40;20036;-71
2021/06/28 06:31:31;;;;;;;6.95;5.00;;;26.00;52.70;;;;;;3567858;40;20057;-71
2021/06/28 06:33:57;;;;;;;9.18;5.22;;;26.10;52.00;;;;;;3567200;40;20036;-71
2021/06/28 06:36:23;;;;;;;6.22;5.63;;;26.20;51.20;;;;;;3566011;40;20037;-71
2021/06/28 06:38:49;;;;;;;7.75;5.95;;;26.20;50.90;;;;;;3566872;40;20035;-71
2021/06/28 06:41:15;;;;;;;5.50;5.00;;;26.30;51.70;;;;;;3561628;40;20042;-71
2021/06/28 06:43:41;;;;;;;10.95;5.50;;;26.40;51.30;;;;;;3565160;40;20035;-72
2021/06/28 06:46:07;;;;;;;7.70;5.18;;;26.50;51.20;;;;;;3566324;40;20018;-71
2021/06/28 06:48:33;;;;;;;9.88;5.45;;;26.50;51.70;;;;;;3565965;40;20037;-71
2021/06/28 06:50:59;;;;;;;6.32;4.97;;;26.60;50.80;;;;;;3566200;40;20123;-71
2021/06/28 06:53:25;;;;;;;6.75;5.40;;;26.50;50.80;;;;;;3566735;40;20044;-71
2021/06/28 06:55:51;;;;;;;8.00;5.43;;;26.50;50.70;;;;;;3569682;40;20086;-71
2021/06/28 06:58:16;;;;;;;6.85;5.30;;;26.40;50.90;;;;;;3562628;40;20539;-71
2021/06/28 07:00:43;;;;;;;6.78;5.32;;;26.40;50.70;;;;;;3562580;40;20025;-71
2021/06/28 07:03:09;;;;;;;5.97;5.20;;;26.30;50.80;;;;;;3566110;40;20033;-71
2021/06/28 07:05:35;;;;;;;6.78;5.88;;;26.20;51.10;;;;;;3568061;40;20025;-71
2021/06/28 07:08:01;;;;;;;6.05;5.45;;;26.20;51.90;;;;;;3564013;40;20052;-71
2021/06/28 07:10:27;;;;;;;7.80;7.00;;;26.20;51.80;;;;;;3561222;40;20029;-71
2021/06/28 07:12:53;;;;;;;7.93;5.65;;;26.20;51.40;;;;;;3569135;40;20084;-71
2021/06/28 07:15:20;;;;;;;6.32;5.25;;;26.30;51.60;;;;;;3564182;40;20033;-71
2021/06/28 07:17:48;;;;;;;7.45;5.70;;;26.30;50.80;;;;;;3562898;40;20029;-71
2021/06/28 07:20:22;;;;;;;6.25;5.68;;;26.40;51.00;;;;;;3566499;40;20043;-71
2021/06/28 07:22:48;;;;;;;8.18;5.60;;;26.40;51.20;;;;;;3563655;40;20075;-71
2021/06/28 07:25:15;;;;;;;5.72;4.95;;;26.50;50.00;;;;;;3565074;40;20040;-71
2021/06/28 07:27:42;;;;;;;5.93;5.32;;;26.60;49.40;;;;;;3566643;40;20022;-71
2021/06/28 07:30:10;;;;;;;8.75;5.32;;;26.60;49.10;;;;;;3562574;40;20030;-71
2021/06/28 07:32:38;;;;;;;5.88;5.28;;;26.70;50.10;;;;;;3561402;40;20025;-71
2021/06/28 07:35:05;;;;;;;5.60;4.80;;;26.70;49.60;;;;;;3560910;40;20111;-71
2021/06/28 07:37:31;;;;;;;5.13;4.10;;;26.80;49.10;;;;;;3564593;40;20796;-71
2021/06/28 07:39:57;;;;;;;5.22;4.20;;;26.90;47.10;;;;;;3566717;40;20025;-71
2021/06/28 07:42:24;;;;;;;4.57;4.18;;;27.00;47.30;;;;;;3563541;40;20034;-70
2021/06/28 07:44:51;;;;;;;5.45;4.90;;;26.90;47.80;;;;;;3562910;40;20033;-71
2021/06/28 07:47:16;;;;;;;5.43;4.43;;;27.00;48.60;;;;;;3564117;40;20026;-72
2021/06/28 07:49:42;;;;;;;6.05;3.53;;;27.10;48.60;;;;;;3564733;40;20818;-72
2021/06/28 07:52:09;;;;;;;4.90;4.40;;;27.20;46.50;;;;;;3566568;40;20397;-72
2021/06/28 07:54:37;;;;;;;4.35;4.00;;;27.30;46.40;;;;;;3565181;40;20065;-73
2021/06/28 07:57:03;;;;;;;4.10;3.72;;;27.30;46.40;;;;;;3566314;40;20077;-74
2021/06/28 07:59:29;;;;;;;4.45;3.80;;;27.40;45.60;;;;;;3565385;40;20323;-73
2021/06/28 08:01:54;;;;;;;4.65;3.10;;;27.40;45.00;;;;;;3557697;40;20025;-72
2021/06/28 08:04:20;;;;;;;4.07;3.67;;;27.40;43.70;;;;;;3567969;40;20044;-72
2021/06/28 08:06:46;;;;;;;3.88;3.47;;;27.50;43.70;;;;;;3563035;40;20122;-72
2021/06/28 08:09:11;;;;;;;4.30;3.90;;;27.60;43.80;;;;;;3563381;40;20032;-72
2021/06/28 08:11:37;;;;;;;5.53;3.60;;;27.60;44.20;;;;;;3566240;40;20041;-72
2021/06/28 08:14:05;;;;;;;4.68;3.65;;;27.70;43.90;;;;;;3563922;40;20115;-72
2021/06/28 08:16:31;;;;;;;3.50;3.20;;;27.70;44.20;;;;;;3564646;40;20148;-73
2021/06/28 08:18:56;;;;;;;4.43;4.00;;;27.80;44.20;;;;;;3564186;40;20033;-72
2021/06/28 08:21:22;;;;;;;5.35;3.53;;;27.90;44.80;;;;;;3561195;40;20134;-73
2021/06/28 08:23:48;;;;;;;10.10;3.45;;;28.00;43.70;;;;;;3563630;40;20025;-71
2021/06/28 08:26:14;;;;;;;3.40;3.10;;;28.10;43.20;;;;;;3566513;40;20025;-71
2021/06/28 08:28:40;;;;;;;7.78;3.10;;;28.20;43.00;;;;;;3565052;40;20032;-71
2021/06/28 08:31:06;;;;;;;6.93;3.25;;;28.30;41.80;;;;;;3565611;40;20112;-71
2021/06/28 08:33:32;;;;;;;3.17;2.88;;;28.40;42.10;;;;;;3559969;40;20033;-71
2021/06/28 08:35:59;;;;;;;3.38;3.05;;;28.50;42.00;;;;;;3559553;40;20142;-71
2021/06/28 08:38:25;;;;;;;3.30;3.00;;;28.50;41.60;;;;;;3563647;40;20037;-71
2021/06/28 08:40:51;;;;;;;5.75;3.00;;;28.60;41.20;;;;;;3564378;40;20979;-71
2021/06/28 08:43:17;;;;;;;3.00;2.70;;;28.70;40.70;;;;;;3566577;40;20025;-76
2021/06/28 08:45:44;;;;;;;3.20;2.90;;;28.80;39.90;;;;;;3565000;40;20037;-74
2021/06/28 08:48:10;;;;;;;3.83;2.92;;;28.80;40.00;;;;;;3553987;40;20419;-74
2021/06/28 08:50:38;;;;;;;3.17;2.88;;;28.90;40.10;;;;;;3567394;40;20041;-72
2021/06/28 08:53:06;;;;;;;3.22;2.55;;;28.90;39.80;;;;;;3564942;40;20073;-72
2021/06/28 08:55:32;;;;;;;2.95;2.70;;;29.00;39.70;;;;;;3565493;40;20085;-72
2021/06/28 08:57:57;;;;;;;2.92;2.70;;;29.10;39.60;;;;;;3560057;40;20138;-72
2021/06/28 09:00:23;;;;;;;2.60;2.40;;;29.20;39.30;;;;;;3561655;40;20029;-72
2021/06/28 09:03:09;;;;;;;2.92;2.70;;;29.30;38.70;;;;;;3562287;40;20025;-72
2021/06/28 09:05:52;;;;;;;2.63;2.42;;;29.40;38.60;;;;;;3563922;40;20049;-72
2021/06/28 09:08:19;;;;;;;2.72;2.53;;;29.40;38.70;;;;;;3558021;40;20030;-72
2021/06/28 09:10:45;;;;;;;3.90;2.22;;;29.50;38.60;;;;;;3561173;40;20036;-72
2021/06/28 09:13:12;;;;;;;2.40;2.20;;;29.60;37.80;;;;;;3561336;40;20045;-82
2021/06/28 09:15:55;;;;;;;3.97;2.20;;;29.70;37.40;;;;;;3562359;40;20398;-72
2021/06/28 09:18:26;;;;;;;3.22;2.65;;;29.70;38.00;;;;;;3557189;40;20033;-73
2021/06/28 09:21:11;;;;;;;3.95;2.55;;;29.70;37.90;;;;;;3563353;40;20033;-72
2021/06/28 09:23:41;;;;;;;3.20;2.70;;;29.70;37.40;;;;;;3562311;40;20030;-72
2021/06/28 09:26:13;;;;;;;3.63;2.83;;;29.70;38.70;;;;;;3565287;40;20324;-72
2021/06/28 09:28:43;;;;;;;3.05;2.28;;;29.60;38.40;;;;;;3565902;40;20036;-72
2021/06/28 09:31:16;;;;;;;2.97;2.67;;;29.80;36.50;;;;;;3561226;40;20288;-72
2021/06/28 09:33:41;;;;;;;2.30;2.15;;;30.00;37.90;;;;;;3564205;40;20041;-73
2021/06/28 09:36:21;;;;;;;2.60;2.40;;;30.00;36.80;;;;;;3568028;40;20013;-72
2021/06/28 09:38:47;;;;;;;3.70;2.67;;;30.00;37.40;;;;;;3564982;40;20034;-72
2021/06/28 09:41:30;;;;;;;2.47;2.22;;;30.00;36.90;;;;;;3559872;40;20032;-72
2021/06/28 09:44:05;;;;;;;2.50;2.30;;;30.10;35.90;;;;;;3561566;40;20064;-73
2021/06/28 09:46:31;;;;;;;2.50;2.30;;;30.00;35.50;;;;;;3562270;40;20048;-72
2021/06/28 09:48:57;;;;;;;2.40;2.20;;;30.00;35.60;;;;;;3563553;40;20052;-72
2021/06/28 09:51:24;;;;;;;2.25;2.05;;;30.10;35.80;;;;;;3563864;40;20040;-71
2021/06/28 09:53:53;;;;;;;2.53;2.33;;;30.10;36.10;;;;;;3564226;40;20021;-74
2021/06/28 09:56:39;;;;;;;4.43;2.30;;;30.20;36.50;;;;;;3566530;40;20033;-73
2021/06/28 09:59:23;;;;;;;2.40;2.10;;;30.30;34.90;;;;;;3557277;40;20178;-77
2021/06/28 10:01:51;;;;;;;2.30;2.10;;;30.30;35.10;;;;;;3559695;40;20025;-71
2021/06/28 10:04:40;;;;;;;2.63;2.42;;;30.30;35.60;;;;;;3560938;40;20029;-71
2021/06/28 10:07:33;;;;;;;2.45;2.25;;;30.30;35.60;;;;;;3561219;40;20053;-71
2021/06/28 10:10:13;;;;;;;1.80;1.70;;;30.50;34.90;;;;;;3562606;40;20048;-71
2021/06/28 10:12:47;;;;;;;3.92;2.03;;;30.60;33.20;;;;;;3566584;40;20422;-72
2021/06/28 10:15:19;;;;;;;2.60;2.40;;;30.70;33.10;;;;;;3568549;40;20118;-70
2021/06/28 10:17:46;;;;;;;3.38;1.98;;;30.70;34.00;;;;;;3567437;40;20053;-69
2021/06/28 10:20:16;;;;;;;4.13;2.55;;;30.90;33.40;;;;;;3563477;40;20053;-72
2021/06/28 10:22:43;;;;;;;2.13;1.90;;;31.00;34.40;;;;;;3563068;40;20037;-73
2021/06/28 10:25:10;;;;;;;2.42;2.22;;;31.10;33.90;;;;;;3564270;40;20413;-72
2021/06/28 10:27:36;;;;;;;3.67;2.17;;;31.20;34.20;;;;;;3557421;40;20147;-72
2021/06/28 10:30:06;;;;;;;2.25;2.03;;;31.20;33.90;;;;;;3558845;40;20034;-71
2021/06/28 10:32:33;;;;;;;2.45;2.17;;;31.20;33.80;;;;;;3558803;40;20045;-74
2021/06/28 10:34:59;;;;;;;2.58;2.33;;;31.30;33.20;;;;;;3561710;40;20026;-73
2021/06/28 10:37:35;;;;;;;2.08;1.85;;;31.20;32.90;;;;;;3563096;40;20080;-74
2021/06/28 10:40:12;;;;;;;2.17;1.98;;;31.10;32.80;;;;;;3567370;40;20052;-75
2021/06/28 10:42:46;;;;;;;3.38;2.22;;;31.20;33.80;;;;;;3563814;40;20484;-73
2021/06/28 10:45:14;;;;;;;1.95;1.85;;;31.10;34.10;;;;;;3560746;40;20041;-73
2021/06/28 10:48:01;;;;;;;3.28;1.80;;;31.20;33.00;;;;;;3557638;40;20033;-73
2021/06/28 10:50:51;;;;;;;2.30;2.10;;;31.20;32.90;;;;;;3565287;40;20083;-73
2021/06/28 10:53:55;;;;;;;1.90;1.80;;;31.10;33.40;;;;;;3564735;40;20029;-73
2021/06/28 10:56:34;;;;;;;2.45;2.25;;;31.00;33.40;;;;;;3559100;40;20048;-73
2021/06/28 10:59:16;;;;;;;3.17;2.78;;;31.20;33.50;;;;;;3566132;40;20033;-73
2021/06/28 11:01:43;;;;;;;2.47;2.28;;;31.30;33.50;;;;;;3562920;40;20029;-73
2021/06/28 11:04:10;;;;;;;3.15;1.95;;;31.50;32.80;;;;;;3562560;40;20040;-73
2021/06/28 11:06:57;;;;;;;4.20;2.00;;;31.50;32.50;;;;;;3561276;40;20477;-73
2021/06/28 11:09:52;;;;;;;1.92;1.83;;;31.60;32.50;;;;;;3557549;40;20033;-73
2021/06/28 11:12:18;;;;;;;3.35;2.00;;;31.60;32.20;;;;;;3566277;40;20692;-73
2021/06/28 11:14:51;;;;;;;2.55;2.13;;;31.60;33.50;;;;;;3563209;40;20107;-73
2021/06/28 11:17:22;;;;;;;2.50;2.30;;;31.70;33.10;;;;;;3564973;40;20037;-73
2021/06/28 11:20:05;;;;;;;3.60;2.03;;;31.70;33.10;;;;;;3559775;40;20036;-71
2021/06/28 11:22:41;;;;;;;2.47;2.15;;;31.80;33.00;;;;;;3569052;40;20454;-72
2021/06/28 11:25:14;;;;;;;2.63;1.80;;;31.80;33.00;;;;;;3561875;40;20766;-71
2021/06/28 11:27:43;;;;;;;2.30;2.10;;;31.90;31.70;;;;;;3567229;40;20790;-71
2021/06/28 11:30:14;;;;;;;2.97;2.13;;;32.00;31.00;;;;;;3565652;40;20445;-70
2021/06/28 11:33:02;;;;;;;2.40;2.05;;;32.00;31.80;;;;;;3568680;40;20112;-70
2021/06/28 11:35:34;;;;;;;3.42;2.17;;;32.00;31.80;;;;;;3567777;40;20060;-71
2021/06/28 11:38:35;;;;;;;2.13;1.92;;;32.10;31.30;;;;;;3567004;40;20060;-69
2021/06/28 11:41:12;;;;;;;3.05;2.33;;;32.30;32.30;;;;;;3560572;40;20041;-70
2021/06/28 11:43:47;;;;;;;2.72;2.30;;;32.40;31.30;;;;;;3565805;40;20122;-72
2021/06/28 11:46:14;;;;;;;3.50;2.40;;;32.50;32.00;;;;;;3564217;40;20029;-71
2021/06/28 11:48:49;;;;;;;2.53;2.30;;;32.50;31.80;;;;;;3565639;40;20115;-71
2021/06/28 11:51:42;;;;;;;2.45;2.13;;;32.70;30.80;;;;;;3567062;40;20037;-71
2021/06/28 11:54:13;;;;;;;2.50;2.30;;;32.60;31.70;;;;;;3568500;40;20037;-70
2021/06/28 11:56:52;;;;;;;3.95;2.20;;;32.50;30.50;;;;;;3560434;40;20149;-71
2021/06/28 11:59:19;;;;;;;3.13;2.08;;;32.60;31.40;;;;;;3562460;40;20026;-70
2021/06/28 12:01:52;;;;;;;2.70;2.50;;;32.60;31.20;;;;;;3564154;40;20029;-70
2021/06/28 12:04:22;;;;;;;2.40;2.20;;;32.50;31.10;;;;;;3566371;40;20033;-70
2021/06/28 12:06:49;;;;;;;2.20;2.00;;;32.40;31.30;;;;;;3562143;40;20044;-70
2021/06/28 12:09:18;;;;;;;2.60;2.40;;;32.20;32.10;;;;;;3566648;40;20598;-73
2021/06/28 12:11:57;;;;;;;2.05;1.83;;;32.20;31.70;;;;;;3567526;40;20044;-74
2021/06/28 12:14:53;;;;;;;2.15;1.95;;;32.10;31.40;;;;;;3567531;40;20059;-70
2021/06/28 12:17:21;;;;;;;2.17;2.08;;;32.00;31.50;;;;;;3563267;40;20079;-72
2021/06/28 12:19:52;;;;;;;3.30;2.22;;;32.10;32.30;;;;;;3564019;40;20033;-68
2021/06/28 12:22:21;;;;;;;3.65;2.20;;;32.20;32.00;;;;;;3563358;40;20053;-73
2021/06/28 12:24:54;;;;;;;2.53;2.33;;;32.30;32.10;;;;;;3561277;40;20045;-73
2021/06/28 12:27:20;;;;;;;4.03;2.60;;;32.50;32.10;;;;;;3566812;40;20043;-74
2021/06/28 12:29:48;;;;;;;2.60;2.40;;;32.60;31.10;;;;;;3560595;40;21424;-76
2021/06/28 12:32:20;;;;;;;2.00;1.90;;;32.50;31.30;;;;;;3559280;40;20045;-76
2021/06/28 12:35:07;;;;;;;2.35;2.22;;;32.40;31.30;;;;;;3554271;40;20013;-73
2021/06/28 12:37:37;;;;;;;2.50;2.30;;;32.30;31.90;;;;;;3567423;40;20493;-76
2021/06/28 12:40:19;;;;;;;2.20;2.10;;;32.20;31.80;;;;;;3566852;40;20064;-76
2021/06/28 12:42:46;;;;;;;3.67;2.40;;;32.20;32.30;;;;;;3561284;40;20029;-73
2021/06/28 12:45:14;;;;;;;2.35;2.20;;;32.20;33.10;;;;;;3558196;40;20033;-73
2021/06/28 12:47:42;;;;;;;2.92;1.90;;;32.20;31.50;;;;;;3563783;40;20033;-73
2021/06/28 12:50:13;;;;;;;1.92;1.83;;;32.30;31.30;;;;;;3563786;40;20030;-75
2021/06/28 12:52:39;;;;;;;2.30;2.10;;;32.30;30.70;;;;;;3565606;40;20043;-74